Time;durP1;ratioP1;P1;durP2;ratioP2;P2;SDS_P1;SDS_P2;PMS_P1;PMS_P2;Temp;Humidity;BMP_temperature;BMP_pressure;BME280_temperature;BME280_humidity;BME280_pressure;Samples;Min_cycle;Max_cycle;Signal;HPM_P1;HPM_P2
2021/09/05 00:01:22;;;;;;;15.73;6.50;;;25.10;65.90;;;;;;5053496;28;20382;-71
2021/09/05 00:03:48;;;;;;;13.98;5.97;;;25.00;65.90;;;;;;5035366;28;20163;-72
2021/09/05 00:06:14;;;;;;;12.77;6.75;;;25.00;66.10;;;;;;5053240;28;20443;-74
2021/09/05 00:08:42;;;;;;;11.40;6.38;;;25.00;66.40;;;;;;5054193;28;20037;-73
2021/09/05 00:11:08;;;;;;;10.70;6.63;;;25.00;66.50;;;;;;5054500;28;20027;-73
2021/09/05 00:13:33;;;;;;;13.80;7.28;;;25.00;66.50;;;;;;5053846;28;20037;-72
2021/09/05 00:15:59;;;;;;;9.77;6.40;;;25.00;66.60;;;;;;5053607;28;20036;-72
2021/09/05 00:18:25;;;;;;;16.48;6.78;;;25.00;66.60;;;;;;5054399;28;20385;-73
2021/09/05 00:20:50;;;;;;;16.00;6.30;;;25.00;66.70;;;;;;5054705;28;20481;-74
2021/09/05 00:23:16;;;;;;;12.32;7.22;;;25.00;66.70;;;;;;5054875;28;20119;-72
2021/09/05 00:25:42;;;;;;;14.90;6.88;;;25.00;66.60;;;;;;5053074;28;20021;-72
2021/09/05 00:28:08;;;;;;;13.40;6.47;;;25.00;66.80;;;;;;5052736;28;20021;-73
2021/09/05 00:30:34;;;;;;;11.80;6.47;;;25.00;66.50;;;;;;5053008;28;20486;-72
2021/09/05 00:33:01;;;;;;;11.15;6.53;;;25.00;66.20;;;;;;5052775;28;20025;-73
2021/09/05 00:35:27;;;;;;;10.77;7.15;;;25.00;66.40;;;;;;5052908;28;20028;-71
2021/09/05 00:37:53;;;;;;;11.98;5.97;;;24.90;66.20;;;;;;5052963;28;20435;-72
2021/09/05 00:40:19;;;;;;;13.57;5.57;;;24.90;66.10;;;;;;5053124;28;20417;-71
2021/09/05 00:42:44;;;;;;;10.88;5.32;;;24.90;66.00;;;;;;5053073;28;20100;-71
2021/09/05 00:45:10;;;;;;;13.85;5.78;;;24.90;65.80;;;;;;5052699;28;20025;-72
2021/09/05 00:47:36;;;;;;;10.60;5.57;;;24.90;65.30;;;;;;5052590;28;20047;-72
2021/09/05 00:50:02;;;;;;;16.05;5.00;;;24.80;65.00;;;;;;5052794;28;20056;-71
2021/09/05 00:52:29;;;;;;;8.70;4.32;;;24.80;64.60;;;;;;5052842;28;20025;-72
2021/09/05 00:54:55;;;;;;;7.88;4.47;;;24.80;64.50;;;;;;5052639;28;20032;-73
2021/09/05 00:57:22;;;;;;;13.13;4.60;;;24.80;64.40;;;;;;5052800;28;20025;-72
2021/09/05 00:59:48;;;;;;;9.57;4.35;;;24.80;64.20;;;;;;5052813;28;20032;-74
2021/09/05 01:02:15;;;;;;;7.93;4.32;;;24.80;64.10;;;;;;5052525;28;20466;-71
2021/09/05 01:04:43;;;;;;;9.40;3.90;;;24.70;64.20;;;;;;5052706;28;20017;-72
2021/09/05 01:07:10;;;;;;;9.15;4.40;;;24.60;64.20;;;;;;5034737;28;20063;-74
2021/09/05 01:09:36;;;;;;;7.85;4.10;;;24.60;64.10;;;;;;5052804;28;20025;-73
2021/09/05 01:12:03;;;;;;;9.73;4.57;;;24.60;64.00;;;;;;5052601;28;20078;-72
2021/09/05 01:14:28;;;;;;;8.35;4.22;;;24.60;64.00;;;;;;5052510;28;20087;-72
2021/09/05 01:16:54;;;;;;;8.20;4.80;;;24.60;64.00;;;;;;5052391;28;20438;-71
2021/09/05 01:19:22;;;;;;;7.28;4.47;;;24.50;63.90;;;;;;5052902;28;20074;-72
2021/09/05 01:21:50;;;;;;;9.00;4.38;;;24.60;64.20;;;;;;5052649;28;20036;-74
2021/09/05 01:24:17;;;;;;;8.05;4.22;;;24.50;64.10;;;;;;5052442;28;20092;-72
2021/09/05 01:26:45;;;;;;;7.13;4.18;;;24.50;64.40;;;;;;5053150;28;20025;-72
2021/09/05 01:29:11;;;;;;;10.32;4.35;;;24.40;64.20;;;;;;5053981;28;20029;-73
2021/09/05 01:31:42;;;;;;;9.82;4.30;;;24.50;64.40;;;;;;5018979;28;20028;-72
2021/09/05 01:34:09;;;;;;;8.75;4.20;;;24.40;64.30;;;;;;5053217;28;20060;-73
2021/09/05 01:36:36;;;;;;;9.07;4.53;;;24.40;64.20;;;;;;5052389;28;20017;-73
2021/09/05 01:39:03;;;;;;;10.13;4.45;;;24.40;64.50;;;;;;5035767;28;20413;-73
2021/09/05 01:41:29;;;;;;;9.70;4.07;;;24.40;64.40;;;;;;5056034;28;20032;-71
2021/09/05 01:44:03;;;;;;;8.95;4.82;;;24.40;64.60;;;;;;5056080;28;20387;-74
2021/09/05 01:46:29;;;;;;;9.55;4.20;;;24.30;64.50;;;;;;5056677;28;20029;-73
2021/09/05 01:48:55;;;;;;;11.20;4.82;;;24.30;64.60;;;;;;5059531;28;20021;-73
2021/09/05 01:51:21;;;;;;;7.93;4.20;;;24.30;64.70;;;;;;5058947;28;20021;-70
2021/09/05 01:53:46;;;;;;;11.20;4.30;;;24.20;64.80;;;;;;5055684;28;20512;-70
2021/09/05 01:56:12;;;;;;;8.48;4.07;;;24.20;64.80;;;;;;5055583;28;20025;-73
2021/09/05 01:58:38;;;;;;;15.43;4.07;;;24.20;64.80;;;;;;5056040;28;20100;-72
2021/09/05 02:01:03;;;;;;;8.52;4.13;;;24.20;64.80;;;;;;5055557;28;20021;-71
2021/09/05 02:03:29;;;;;;;10.95;4.35;;;24.20;64.50;;;;;;5055554;28;20515;-72
2021/09/05 02:05:55;;;;;;;8.23;4.35;;;24.20;64.40;;;;;;5055374;28;20032;-72
2021/09/05 02:08:21;;;;;;;8.15;3.80;;;24.20;64.30;;;;;;5055503;28;20045;-71
2021/09/05 02:10:46;;;;;;;10.13;3.80;;;24.20;64.40;;;;;;5055504;28;20406;-70
2021/09/05 02:13:12;;;;;;;6.20;3.85;;;24.20;64.30;;;;;;5055365;28;20025;-71
2021/09/05 02:15:38;;;;;;;8.82;4.10;;;24.10;64.30;;;;;;5054990;28;20457;-75
2021/09/05 02:18:03;;;;;;;11.52;4.05;;;24.10;64.20;;;;;;5055107;28;20044;-72
2021/09/05 02:20:29;;;;;;;8.98;4.32;;;24.10;64.10;;;;;;5055217;28;20025;-70
2021/09/05 02:22:55;;;;;;;9.90;4.80;;;24.10;64.00;;;;;;5055345;28;20017;-73
2021/09/05 02:25:21;;;;;;;8.95;4.25;;;24.10;64.00;;;;;;5055206;28;20363;-72
2021/09/05 02:27:46;;;;;;;9.27;4.68;;;24.10;63.90;;;;;;5054956;28;20359;-70
2021/09/05 02:30:13;;;;;;;9.57;4.57;;;24.00;64.00;;;;;;5055010;28;20029;-72
2021/09/05 02:32:39;;;;;;;10.55;4.80;;;24.00;63.90;;;;;;5055144;28;20052;-71
2021/09/05 02:35:06;;;;;;;9.02;4.68;;;24.00;63.90;;;;;;5054971;28;20108;-71
2021/09/05 02:37:33;;;;;;;10.23;4.88;;;24.00;63.90;;;;;;5054981;28;20098;-71
2021/09/05 02:39:58;;;;;;;7.95;5.13;;;24.00;63.80;;;;;;5054679;28;20434;-71
2021/09/05 02:42:24;;;;;;;12.30;5.22;;;24.00;63.80;;;;;;5055215;28;20028;-72
2021/09/05 02:44:50;;;;;;;10.35;5.32;;;24.00;64.00;;;;;;5054530;28;20528;-70
2021/09/05 02:47:16;;;;;;;8.30;4.75;;;24.00;63.80;;;;;;5054930;28;20017;-75
2021/09/05 02:49:41;;;;;;;8.25;5.10;;;24.00;63.90;;;;;;5054273;28;20490;-74
2021/09/05 02:52:09;;;;;;;13.60;5.47;;;24.10;63.80;;;;;;5054749;28;20020;-74
2021/09/05 02:54:38;;;;;;;10.15;5.43;;;24.10;63.70;;;;;;5054208;28;20036;-73
2021/09/05 02:57:04;;;;;;;11.02;5.15;;;24.00;63.60;;;;;;5054699;28;20063;-73
2021/09/05 02:59:30;;;;;;;12.45;5.60;;;23.90;64.00;;;;;;5054439;28;20028;-74
2021/09/05 03:01:55;;;;;;;10.55;5.82;;;23.90;63.90;;;;;;5054588;28;20021;-75
2021/09/05 03:04:21;;;;;;;13.18;5.60;;;23.90;63.90;;;;;;5054391;28;20021;-74
2021/09/05 03:06:46;;;;;;;13.18;5.22;;;23.90;63.90;;;;;;5054503;28;20025;-74
2021/09/05 03:09:12;;;;;;;10.27;5.30;;;23.90;64.10;;;;;;5055703;28;20056;-73
2021/09/05 03:11:38;;;;;;;10.57;5.53;;;23.90;63.90;;;;;;5055388;28;20025;-74
2021/09/05 03:14:03;;;;;;;10.38;5.47;;;23.90;63.90;;;;;;5057084;28;20032;-75
2021/09/05 03:16:29;;;;;;;14.20;5.70;;;23.90;63.90;;;;;;5054796;28;20044;-74
2021/09/05 03:18:55;;;;;;;11.60;5.40;;;23.90;63.80;;;;;;5054129;28;20032;-74
2021/09/05 03:21:20;;;;;;;9.10;4.97;;;23.90;63.90;;;;;;5054378;28;20048;-73
2021/09/05 03:23:46;;;;;;;17.98;5.75;;;23.90;64.00;;;;;;5054858;28;20033;-73
2021/09/05 03:26:12;;;;;;;10.27;5.15;;;23.90;64.00;;;;;;5054162;28;20021;-71
2021/09/05 03:28:37;;;;;;;8.18;4.55;;;23.90;64.00;;;;;;5054147;28;20075;-72
2021/09/05 03:31:03;;;;;;;10.93;5.15;;;23.80;64.10;;;;;;5054044;28;20083;-71
2021/09/05 03:33:29;;;;;;;10.88;5.15;;;23.80;64.20;;;;;;5053904;28;20441;-72
2021/09/05 03:35:54;;;;;;;11.15;5.18;;;23.70;64.30;;;;;;5053825;28;20380;-72
2021/09/05 03:38:20;;;;;;;8.70;5.45;;;23.70;64.30;;;;;;5053728;28;20334;-72
2021/09/05 03:40:46;;;;;;;10.85;5.40;;;23.80;64.20;;;;;;5053775;28;20074;-71
2021/09/05 03:43:11;;;;;;;11.95;5.18;;;23.80;64.20;;;;;;5053425;28;20021;-71
2021/09/05 03:45:37;;;;;;;12.43;5.68;;;23.80;64.40;;;;;;5053664;28;20033;-72
2021/09/05 03:48:03;;;;;;;10.38;5.45;;;23.80;64.40;;;;;;5053381;28;20017;-72
2021/09/05 03:50:29;;;;;;;8.77;5.28;;;23.70;64.50;;;;;;5035470;28;20505;-72
2021/09/05 03:52:55;;;;;;;9.27;5.20;;;23.70;64.30;;;;;;5053189;28;20021;-71
2021/09/05 03:55:20;;;;;;;8.43;5.22;;;23.70;64.40;;;;;;5035264;28;20547;-72
2021/09/05 03:57:46;;;;;;;9.15;5.38;;;23.70;65.00;;;;;;5053390;28;20067;-73
2021/09/05 04:00:12;;;;;;;10.02;5.28;;;23.70;64.30;;;;;;5053535;28;20052;-73
2021/09/05 04:02:38;;;;;;;10.77;4.97;;;23.70;64.50;;;;;;5052597;28;20032;-73
2021/09/05 04:05:06;;;;;;;11.48;5.80;;;23.70;64.50;;;;;;5053367;28;20500;-73
2021/09/05 04:07:34;;;;;;;13.75;5.53;;;23.60;64.50;;;;;;5053153;28;20017;-74
2021/09/05 04:10:08;;;;;;;9.05;4.78;;;23.70;64.60;;;;;;5053061;28;20367;-74
2021/09/05 04:12:43;;;;;;;8.82;5.22;;;23.60;64.50;;;;;;5053193;28;20496;-73
2021/09/05 04:15:11;;;;;;;11.10;5.15;;;23.60;64.40;;;;;;5053004;28;20482;-75
2021/09/05 04:17:37;;;;;;;10.48;5.72;;;23.60;64.50;;;;;;5053136;28;20067;-72
2021/09/05 04:20:04;;;;;;;11.73;5.65;;;23.60;64.50;;;;;;5053018;28;20047;-72
2021/09/05 04:22:30;;;;;;;12.57;5.28;;;23.50;64.50;;;;;;5053138;28;20029;-72
2021/09/05 04:24:56;;;;;;;10.98;5.40;;;23.60;64.50;;;;;;5053221;28;20103;-74
2021/09/05 04:27:22;;;;;;;8.45;4.95;;;23.50;64.70;;;;;;5053095;28;20036;-74
2021/09/05 04:29:47;;;;;;;8.48;4.60;;;23.50;64.80;;;;;;5052919;28;20377;-73
2021/09/05 04:32:13;;;;;;;9.23;4.93;;;23.50;64.90;;;;;;5052999;28;20036;-75
2021/09/05 04:34:39;;;;;;;10.13;5.82;;;23.60;64.60;;;;;;5053443;28;20041;-71
2021/09/05 04:37:04;;;;;;;9.00;5.70;;;23.60;64.60;;;;;;5053067;28;20036;-73
2021/09/05 04:39:30;;;;;;;10.20;5.07;;;23.60;64.70;;;;;;5053263;28;20479;-74
2021/09/05 04:41:56;;;;;;;10.48;5.13;;;23.60;64.80;;;;;;5053410;28;20032;-73
2021/09/05 04:44:22;;;;;;;11.38;5.00;;;23.50;64.60;;;;;;5054012;28;20032;-72
2021/09/05 04:46:47;;;;;;;10.40;5.05;;;23.60;64.60;;;;;;5054081;28;20029;-74
2021/09/05 04:49:13;;;;;;;11.68;5.30;;;23.60;64.60;;;;;;5054129;28;20336;-71
2021/09/05 04:51:39;;;;;;;9.68;4.85;;;23.60;64.50;;;;;;5052834;28;20033;-73
2021/09/05 04:54:05;;;;;;;13.70;5.32;;;23.50;64.50;;;;;;5052701;28;20037;-71
2021/09/05 04:56:30;;;;;;;7.40;4.20;;;23.50;64.70;;;;;;5052596;28;20021;-72
2021/09/05 04:58:56;;;;;;;9.88;4.88;;;23.50;64.90;;;;;;5052799;28;20025;-73
2021/09/05 05:01:22;;;;;;;14.00;5.60;;;23.40;64.80;;;;;;5052693;28;20039;-72
2021/09/05 05:03:47;;;;;;;11.00;5.18;;;23.40;64.80;;;;;;5034980;28;20021;-72
2021/09/05 05:06:13;;;;;;;13.35;5.75;;;23.40;64.80;;;;;;5053230;28;20025;-72
2021/09/05 05:08:39;;;;;;;10.73;5.30;;;23.40;64.90;;;;;;5053385;28;20029;-71
2021/09/05 05:11:04;;;;;;;8.55;5.00;;;23.40;64.80;;;;;;5053073;28;20467;-71
2021/09/05 05:13:30;;;;;;;9.20;5.40;;;23.50;64.60;;;;;;5054490;28;20033;-73
2021/09/05 05:15:56;;;;;;;10.15;4.78;;;23.50;64.60;;;;;;5055998;28;20375;-72
2021/09/05 05:18:25;;;;;;;8.40;4.65;;;23.40;64.80;;;;;;5056246;28;20037;-73
2021/09/05 05:20:51;;;;;;;12.93;6.00;;;23.50;64.50;;;;;;5056145;28;20026;-75
2021/09/05 05:23:17;;;;;;;8.32;5.05;;;23.50;64.20;;;;;;5056224;28;20465;-74
2021/09/05 05:25:43;;;;;;;10.80;5.13;;;23.50;64.00;;;;;;5056107;28;20064;-74
2021/09/05 05:28:09;;;;;;;10.27;5.70;;;23.50;64.10;;;;;;5056136;28;20085;-74
2021/09/05 05:30:35;;;;;;;11.18;4.75;;;23.50;63.90;;;;;;5056064;28;20396;-73
2021/09/05 05:33:01;;;;;;;9.68;5.03;;;23.50;63.70;;;;;;5056338;28;20132;-75
2021/09/05 05:35:27;;;;;;;8.90;5.13;;;23.50;63.80;;;;;;5055912;28;20039;-75
2021/09/05 05:37:53;;;;;;;10.13;5.00;;;23.60;63.90;;;;;;5056543;28;20112;-73
2021/09/05 05:40:23;;;;;;;10.13;4.85;;;23.60;63.80;;;;;;5055885;28;20075;-74
2021/09/05 05:42:49;;;;;;;9.98;5.03;;;23.60;63.40;;;;;;5056131;28;20433;-75
2021/09/05 05:45:18;;;;;;;9.07;4.85;;;23.70;63.60;;;;;;5037637;28;20025;-75
2021/09/05 05:47:45;;;;;;;7.93;5.20;;;23.80;63.30;;;;;;5037697;28;20386;-75
2021/09/05 05:50:11;;;;;;;9.88;5.13;;;23.90;63.40;;;;;;5055632;28;20079;-75
2021/09/05 05:52:37;;;;;;;10.50;5.30;;;24.20;62.40;;;;;;5055652;28;20032;-74
2021/09/05 05:55:03;;;;;;;8.48;4.70;;;24.30;62.10;;;;;;5055278;28;20033;-73
2021/09/05 05:57:29;;;;;;;8.07;4.72;;;24.60;61.10;;;;;;5055764;28;20025;-75
2021/09/05 05:59:54;;;;;;;9.88;4.68;;;24.80;60.40;;;;;;5037791;28;20029;-74
2021/09/05 06:02:20;;;;;;;9.02;4.93;;;24.90;59.60;;;;;;5055351;28;20013;-74
2021/09/05 06:04:46;;;;;;;9.73;4.97;;;25.10;59.20;;;;;;5055825;28;20481;-74
2021/09/05 06:07:12;;;;;;;11.07;4.93;;;25.30;58.70;;;;;;5055768;28;20027;-76
2021/09/05 06:09:44;;;;;;;8.20;4.88;;;25.50;58.20;;;;;;5056230;28;20405;-76
2021/09/05 06:12:10;;;;;;;7.32;4.15;;;25.70;57.50;;;;;;5058662;28;20029;-74
2021/09/05 06:14:37;;;;;;;10.25;4.50;;;25.70;56.70;;;;;;5058447;28;20064;-75
2021/09/05 06:17:04;;;;;;;7.82;4.50;;;25.90;56.30;;;;;;5055131;28;20052;-72
2021/09/05 06:19:30;;;;;;;7.47;3.88;;;26.10;55.50;;;;;;5055287;28;20025;-74
2021/09/05 06:21:56;;;;;;;8.40;4.43;;;26.30;55.10;;;;;;5055205;28;20021;-74
2021/09/05 06:24:21;;;;;;;9.25;4.72;;;26.50;54.00;;;;;;5054419;28;20023;-71
2021/09/05 06:26:47;;;;;;;10.35;4.75;;;26.50;53.80;;;;;;5055942;28;20379;-72
2021/09/05 06:29:13;;;;;;;7.15;4.40;;;26.70;53.30;;;;;;5061748;28;20023;-72
2021/09/05 06:31:39;;;;;;;9.07;4.60;;;26.70;53.20;;;;;;5056576;28;20044;-72
2021/09/05 06:34:05;;;;;;;8.40;3.88;;;26.80;52.90;;;;;;5055449;28;20052;-73
2021/09/05 06:36:31;;;;;;;10.20;4.45;;;27.00;52.70;;;;;;5056620;28;20051;-73
2021/09/05 06:38:57;;;;;;;10.98;5.03;;;27.10;52.40;;;;;;5054927;28;20485;-74
2021/09/05 06:41:23;;;;;;;10.80;4.75;;;27.30;52.20;;;;;;5055044;28;20029;-74
2021/09/05 06:43:49;;;;;;;7.78;4.38;;;27.40;52.30;;;;;;5054790;28;20029;-74
2021/09/05 06:46:14;;;;;;;14.82;5.35;;;27.40;52.30;;;;;;5054734;28;20510;-74
2021/09/05 06:48:41;;;;;;;10.82;4.38;;;27.50;52.10;;;;;;5055284;28;20033;-73
2021/09/05 06:51:08;;;;;;;11.70;4.75;;;27.60;51.50;;;;;;5054366;28;20025;-71
2021/09/05 06:53:33;;;;;;;6.85;4.25;;;27.50;51.50;;;;;;5054585;28;20025;-74
2021/09/05 06:55:59;;;;;;;7.47;4.25;;;27.60;51.30;;;;;;5054281;28;20032;-74
2021/09/05 06:58:25;;;;;;;11.63;4.55;;;27.70;51.40;;;;;;5054232;28;20043;-74
2021/09/05 07:00:52;;;;;;;7.65;4.43;;;27.70;50.90;;;;;;5054194;28;20120;-72
2021/09/05 07:03:17;;;;;;;5.43;3.55;;;27.70;50.70;;;;;;5054376;28;20499;-74
2021/09/05 07:05:43;;;;;;;9.65;3.75;;;27.80;51.10;;;;;;5054099;28;20049;-75
2021/09/05 07:08:09;;;;;;;10.65;4.13;;;27.80;50.90;;;;;;5053975;28;20029;-75
2021/09/05 07:10:36;;;;;;;7.50;4.15;;;27.90;50.60;;;;;;5054247;28;20056;-74
2021/09/05 07:13:02;;;;;;;7.65;3.65;;;28.00;50.60;;;;;;5054149;28;20079;-74
2021/09/05 07:15:28;;;;;;;8.40;4.70;;;28.10;50.40;;;;;;5054010;28;20036;-75
2021/09/05 07:17:53;;;;;;;8.00;4.57;;;28.10;50.30;;;;;;5053688;28;20053;-74
2021/09/05 07:20:19;;;;;;;8.60;3.53;;;28.10;50.50;;;;;;5053719;28;20079;-75
2021/09/05 07:22:45;;;;;;;9.40;4.28;;;28.10;50.10;;;;;;5053953;28;20028;-75
2021/09/05 07:25:11;;;;;;;7.38;3.75;;;28.20;50.40;;;;;;5053828;28;20375;-75
2021/09/05 07:27:37;;;;;;;6.45;4.00;;;28.30;50.30;;;;;;5053913;28;20063;-74
2021/09/05 07:30:04;;;;;;;7.43;4.50;;;28.30;50.10;;;;;;5053830;28;20421;-75
2021/09/05 07:32:30;;;;;;;10.15;4.30;;;28.30;50.10;;;;;;5054252;28;20049;-75
2021/09/05 07:34:55;;;;;;;8.38;4.03;;;28.30;50.10;;;;;;5054286;28;20064;-75
2021/09/05 07:37:21;;;;;;;9.40;3.90;;;28.30;50.00;;;;;;5053417;28;20013;-74
2021/09/05 07:39:47;;;;;;;8.05;3.92;;;28.30;50.00;;;;;;5054343;28;20033;-73
2021/09/05 07:42:12;;;;;;;6.13;4.00;;;28.30;49.90;;;;;;5054724;28;20036;-75
2021/09/05 07:44:38;;;;;;;8.38;4.10;;;28.30;49.80;;;;;;5053775;28;20494;-74
2021/09/05 07:47:04;;;;;;;8.55;4.50;;;28.40;49.70;;;;;;5054572;28;20017;-74
2021/09/05 07:49:30;;;;;;;8.52;4.13;;;28.30;50.00;;;;;;5054940;28;20031;-73
2021/09/05 07:51:56;;;;;;;7.93;4.30;;;28.30;49.90;;;;;;5054550;28;20024;-73
2021/09/05 07:54:22;;;;;;;7.75;4.07;;;28.30;50.10;;;;;;5054419;28;20037;-74
2021/09/05 07:56:48;;;;;;;11.77;4.57;;;28.30;50.10;;;;;;5054600;28;20092;-76
2021/09/05 07:59:14;;;;;;;10.65;3.83;;;28.30;50.00;;;;;;5036889;28;20388;-74
2021/09/05 08:01:40;;;;;;;9.48;4.43;;;28.20;50.00;;;;;;5054353;28;20474;-75
2021/09/05 08:04:06;;;;;;;7.65;4.38;;;28.10;50.10;;;;;;5036150;28;20021;-75
2021/09/05 08:06:31;;;;;;;7.70;4.00;;;28.00;50.30;;;;;;5053834;28;20028;-73
2021/09/05 08:08:58;;;;;;;8.80;4.28;;;27.80;50.30;;;;;;5053220;28;20030;-75
2021/09/05 08:11:24;;;;;;;7.90;4.13;;;27.80;50.50;;;;;;5053110;28;20021;-75
2021/09/05 08:13:50;;;;;;;7.05;4.22;;;27.70;50.50;;;;;;5052880;28;20542;-74
2021/09/05 08:16:16;;;;;;;7.57;4.10;;;27.50;50.70;;;;;;5034747;28;20127;-73
2021/09/05 08:18:41;;;;;;;8.73;4.20;;;27.60;51.20;;;;;;5052937;28;20475;-73
2021/09/05 08:21:08;;;;;;;11.77;4.25;;;27.60;51.20;;;;;;5052949;28;20032;-72
2021/09/05 08:23:35;;;;;;;8.82;4.28;;;27.60;51.10;;;;;;5052981;28;20021;-73
2021/09/05 08:26:02;;;;;;;8.27;4.30;;;27.50;51.30;;;;;;5053069;28;20074;-73
2021/09/05 08:28:28;;;;;;;10.95;4.50;;;27.50;51.20;;;;;;5035169;28;20036;-73
2021/09/05 08:30:54;;;;;;;9.73;3.97;;;27.40;52.00;;;;;;5053132;28;20029;-71
2021/09/05 08:33:20;;;;;;;7.05;3.67;;;27.30;51.40;;;;;;5052840;28;20462;-74
2021/09/05 08:35:46;;;;;;;6.13;3.95;;;27.30;51.80;;;;;;5053124;28;20151;-73
2021/09/05 08:38:13;;;;;;;9.13;4.07;;;27.30;51.50;;;;;;5052672;28;20449;-72
2021/09/05 08:40:46;;;;;;;6.88;4.22;;;27.20;51.40;;;;;;5053128;28;20025;-73
2021/09/05 08:43:12;;;;;;;11.82;4.70;;;27.20;51.30;;;;;;5035148;28;20474;-73
2021/09/05 08:45:39;;;;;;;8.73;4.60;;;27.10;51.80;;;;;;5052819;28;20039;-74
2021/09/05 08:48:07;;;;;;;11.38;4.22;;;27.10;51.60;;;;;;5053841;28;20379;-72
2021/09/05 08:50:33;;;;;;;9.40;4.82;;;27.10;51.70;;;;;;5056716;28;20100;-74
2021/09/05 08:53:00;;;;;;;9.48;4.43;;;27.10;51.70;;;;;;5056398;28;20502;-73
2021/09/05 08:55:26;;;;;;;8.88;4.68;;;27.10;51.90;;;;;;5056540;28;20068;-72
2021/09/05 08:57:52;;;;;;;9.07;4.40;;;27.20;52.30;;;;;;5056657;28;20033;-72
2021/09/05 09:00:18;;;;;;;7.35;4.20;;;27.20;52.00;;;;;;5056714;28;20052;-73
2021/09/05 09:02:52;;;;;;;9.68;4.57;;;27.20;51.80;;;;;;5056451;28;20403;-73
2021/09/05 09:05:33;;;;;;;7.70;5.38;;;27.20;51.60;;;;;;5056495;28;20025;-73
2021/09/05 09:08:14;;;;;;;10.43;4.60;;;27.30;51.60;;;;;;5057093;28;20048;-74
2021/09/05 09:10:57;;;;;;;12.73;6.93;;;27.30;51.50;;;;;;5057012;28;20033;-72
2021/09/05 09:13:32;;;;;;;9.60;5.10;;;27.30;51.80;;;;;;5056933;28;20078;-73
2021/09/05 09:16:11;;;;;;;7.47;4.95;;;27.40;52.10;;;;;;5056087;28;20033;-71
2021/09/05 09:18:39;;;;;;;7.15;4.50;;;27.50;51.40;;;;;;5056340;28;20041;-72
2021/09/05 09:21:10;;;;;;;7.43;4.65;;;27.50;51.20;;;;;;5056253;28;20032;-75
2021/09/05 09:23:37;;;;;;;8.43;5.03;;;27.50;51.60;;;;;;5056378;28;20040;-74
2021/09/05 09:26:08;;;;;;;9.07;4.70;;;27.50;51.60;;;;;;5056440;28;20071;-74
2021/09/05 09:28:39;;;;;;;8.73;4.45;;;27.40;52.40;;;;;;5056972;28;20013;-74
2021/09/05 09:31:21;;;;;;;10.02;4.85;;;27.40;51.50;;;;;;5057543;28;20025;-75
2021/09/05 09:33:55;;;;;;;9.05;4.72;;;27.50;51.80;;;;;;5060513;28;20071;-72
2021/09/05 09:36:26;;;;;;;10.50;4.80;;;27.50;51.20;;;;;;5060211;28;20430;-73
2021/09/05 09:39:05;;;;;;;7.20;4.25;;;27.50;51.40;;;;;;5057270;28;20576;-73
2021/09/05 09:41:41;;;;;;;8.23;4.60;;;27.50;51.20;;;;;;5056039;28;20032;-72
2021/09/05 09:44:12;;;;;;;7.47;4.53;;;27.60;51.20;;;;;;5056009;28;20017;-72
2021/09/05 09:46:40;;;;;;;9.88;6.13;;;27.70;51.40;;;;;;5055515;28;20025;-73
2021/09/05 09:49:11;;;;;;;7.75;5.07;;;27.70;51.20;;;;;;5055522;28;20053;-72
2021/09/05 09:51:38;;;;;;;9.15;4.03;;;27.80;51.30;;;;;;5055805;28;20103;-73
2021/09/05 09:54:04;;;;;;;8.32;4.35;;;27.80;51.10;;;;;;5055749;28;20135;-72
2021/09/05 09:56:30;;;;;;;9.13;4.65;;;27.90;51.10;;;;;;5055643;28;20354;-74
2021/09/05 09:58:58;;;;;;;6.93;4.07;;;28.00;51.00;;;;;;5055020;28;20044;-74
2021/09/05 10:01:28;;;;;;;6.70;3.95;;;28.10;50.70;;;;;;5055215;28;20055;-73
2021/09/05 10:03:59;;;;;;;10.98;4.55;;;28.20;50.30;;;;;;5037048;28;20489;-73
2021/09/05 10:06:35;;;;;;;12.10;4.03;;;28.30;49.60;;;;;;5037168;28;20431;-73
2021/09/05 10:09:08;;;;;;;8.65;3.58;;;28.30;49.90;;;;;;5055114;28;20068;-73
2021/09/05 10:11:35;;;;;;;9.63;4.10;;;28.30;49.30;;;;;;5055183;28;20021;-74
2021/09/05 10:14:02;;;;;;;9.68;4.40;;;28.40;49.90;;;;;;5055160;28;20096;-74
2021/09/05 10:16:27;;;;;;;7.22;3.55;;;28.40;49.90;;;;;;5054814;28;20524;-75
2021/09/05 10:18:56;;;;;;;11.35;4.15;;;28.40;49.60;;;;;;5054952;28;20097;-75
2021/09/05 10:21:22;;;;;;;7.75;3.92;;;28.40;49.60;;;;;;5054967;28;20063;-75
2021/09/05 10:23:56;;;;;;;10.13;3.50;;;28.50;49.60;;;;;;5055249;28;20136;-72
2021/09/05 10:26:22;;;;;;;6.97;3.83;;;28.40;47.80;;;;;;5055073;28;20100;-74
2021/09/05 10:28:57;;;;;;;10.40;3.67;;;28.50;49.60;;;;;;5055013;28;20072;-73
2021/09/05 10:31:28;;;;;;;9.07;3.60;;;28.60;48.80;;;;;;5054889;28;20108;-73
2021/09/05 10:33:54;;;;;;;7.13;3.83;;;28.70;47.10;;;;;;5054747;28;20029;-72
2021/09/05 10:36:24;;;;;;;9.20;4.07;;;28.80;48.10;;;;;;5054597;28;20032;-76
2021/09/05 10:38:52;;;;;;;8.55;4.15;;;28.80;47.90;;;;;;5036870;28;20028;-74
2021/09/05 10:41:21;;;;;;;9.60;3.13;;;28.90;47.30;;;;;;5054605;28;20021;-75
2021/09/05 10:43:50;;;;;;;6.80;3.17;;;29.00;46.80;;;;;;5055082;28;20090;-71
2021/09/05 10:46:17;;;;;;;6.40;3.45;;;29.00;46.80;;;;;;5054771;28;20025;-75
2021/09/05 10:48:48;;;;;;;8.30;3.67;;;29.10;47.40;;;;;;5054852;28;20033;-74
2021/09/05 10:51:24;;;;;;;8.43;3.60;;;29.20;47.60;;;;;;5055400;28;20113;-73
2021/09/05 10:53:51;;;;;;;10.40;3.78;;;29.20;45.50;;;;;;5054992;28;20033;-72
2021/09/05 10:56:18;;;;;;;6.80;3.60;;;29.30;47.30;;;;;;5036879;28;20112;-72
2021/09/05 10:58:55;;;;;;;7.70;3.60;;;29.30;47.40;;;;;;5054590;28;20044;-75
2021/09/05 11:01:34;;;;;;;6.93;3.95;;;29.40;45.20;;;;;;5054602;28;20078;-72
2021/09/05 11:04:15;;;;;;;10.07;3.75;;;29.50;47.10;;;;;;5054221;28;20085;-73
2021/09/05 11:06:56;;;;;;;9.52;4.30;;;29.50;45.40;;;;;;5054352;28;20029;-72
2021/09/05 11:09:23;;;;;;;7.05;3.67;;;29.60;45.20;;;;;;5054331;28;20100;-74
2021/09/05 11:11:57;;;;;;;8.80;3.40;;;29.70;47.00;;;;;;5054273;28;20120;-70
2021/09/05 11:14:34;;;;;;;10.63;4.03;;;29.70;45.40;;;;;;5054099;28;20215;-73
2021/09/05 11:17:07;;;;;;;9.00;3.78;;;29.80;47.00;;;;;;5054428;28;20043;-72
2021/09/05 11:19:52;;;;;;;8.80;4.32;;;29.80;45.10;;;;;;5053821;28;20037;-73
2021/09/05 11:22:21;;;;;;;10.25;3.80;;;29.90;44.80;;;;;;5035913;28;20482;-74
2021/09/05 11:25:03;;;;;;;8.38;3.55;;;29.90;46.70;;;;;;5035828;28;20048;-73
2021/09/05 11:27:29;;;;;;;6.47;3.38;;;30.00;46.90;;;;;;5053946;28;20393;-72
2021/09/05 11:30:04;;;;;;;11.25;3.47;;;30.10;46.40;;;;;;5053826;28;20044;-73
2021/09/05 11:32:30;;;;;;;6.78;3.50;;;30.20;46.00;;;;;;5053840;28;20025;-72
2021/09/05 11:34:57;;;;;;;8.43;3.95;;;30.20;45.80;;;;;;5053771;28;20031;-72
2021/09/05 11:37:34;;;;;;;7.03;3.55;;;30.30;45.90;;;;;;5053820;28;20033;-72
2021/09/05 11:40:05;;;;;;;7.75;3.47;;;30.30;43.40;;;;;;5053969;28;20032;-73
2021/09/05 11:42:31;;;;;;;5.75;3.72;;;30.40;43.90;;;;;;5053617;28;20509;-73
2021/09/05 11:45:06;;;;;;;6.60;3.53;;;30.40;44.60;;;;;;5053320;28;20025;-72
2021/09/05 11:47:33;;;;;;;6.97;3.45;;;30.50;44.40;;;;;;5054202;28;20052;-75
2021/09/05 11:50:01;;;;;;;9.18;3.90;;;30.60;43.90;;;;;;5054087;28;20024;-73
2021/09/05 11:52:30;;;;;;;7.68;3.60;;;30.50;44.10;;;;;;5053986;28;20033;-72
2021/09/05 11:55:04;;;;;;;6.72;3.60;;;30.50;43.90;;;;;;5053206;28;20029;-72
2021/09/05 11:57:31;;;;;;;7.68;3.88;;;30.50;43.80;;;;;;5053592;28;20608;-72
2021/09/05 12:00:00;;;;;;;9.77;3.70;;;30.40;43.90;;;;;;5053438;28;20045;-73
2021/09/05 12:02:37;;;;;;;7.68;3.45;;;30.40;43.90;;;;;;5053671;28;20063;-73
2021/09/05 12:05:05;;;;;;;5.55;3.53;;;30.30;43.10;;;;;;5053880;28;20074;-76
2021/09/05 12:07:36;;;;;;;8.02;3.20;;;30.30;45.40;;;;;;5053938;28;20017;-75
2021/09/05 12:10:04;;;;;;;7.60;3.38;;;30.40;45.80;;;;;;5053802;28;20021;-75
2021/09/05 12:12:31;;;;;;;9.65;3.63;;;30.50;43.20;;;;;;5053275;28;20049;-75
2021/09/05 12:14:57;;;;;;;6.72;3.20;;;30.60;44.00;;;;;;5053585;28;20394;-75
2021/09/05 12:17:28;;;;;;;7.93;3.30;;;30.70;43.50;;;;;;5053316;28;20041;-76
2021/09/05 12:20:05;;;;;;;7.78;3.35;;;30.80;42.00;;;;;;5053295;28;20037;-75
2021/09/05 12:22:47;;;;;;;5.28;3.00;;;30.80;42.10;;;;;;5052452;28;20532;-74
2021/09/05 12:25:31;;;;;;;5.50;3.10;;;30.90;41.90;;;;;;5052902;28;20039;-75
2021/09/05 12:28:04;;;;;;;6.18;3.20;;;31.00;41.80;;;;;;5053192;28;20021;-75
2021/09/05 12:30:31;;;;;;;;;;;30.90;43.30;;;;;;5053660;28;20028;-75
2021/09/05 12:33:05;;;;;;;7.13;3.37;;;31.00;43.00;;;;;;5053591;28;19905;-76
2021/09/05 12:35:31;;;;;;;5.85;3.05;;;31.10;41.50;;;;;;5056966;28;20036;-76
2021/09/05 12:38:26;;;;;;;6.00;3.17;;;31.00;41.80;;;;;;5054851;28;20029;-75
2021/09/05 12:40:53;;;;;;;7.07;3.42;;;31.10;41.60;;;;;;5053646;28;20021;-75
2021/09/05 12:43:55;;;;;;;9.43;3.80;;;31.20;42.90;;;;;;5053297;28;20021;-75
2021/09/05 12:46:36;;;;;;;5.80;3.53;;;31.10;42.60;;;;;;5035320;28;20098;-74